Time;durP1;ratioP1;P1;durP2;ratioP2;P2;SDS_P1;SDS_P2;PMS_P1;PMS_P2;Temp;Humidity;BMP_temperature;BMP_pressure;BME280_temperature;BME280_humidity;BME280_pressure;Samples;Min_cycle;Max_cycle;Signal;HPM_P1;HPM_P2
2023/03/09 00:00:50;;;;;;;3.80;1.27;;;15.60;70.90;;;;;;4978330;28;20430;-48
2023/03/09 00:03:15;;;;;;;2.60;1.43;;;15.50;70.20;;;;;;4995424;28;20258;-47
2023/03/09 00:05:43;;;;;;;2.30;1.50;;;15.60;69.80;;;;;;4997730;28;20197;-47
2023/03/09 00:08:09;;;;;;;2.23;1.53;;;15.30;70.80;;;;;;4980996;28;20289;-48
2023/03/09 00:10:38;;;;;;;2.93;1.53;;;15.40;70.90;;;;;;4977946;28;20426;-45
2023/03/09 00:13:03;;;;;;;1.57;1.47;;;15.20;71.30;;;;;;4982225;28;20441;-49
2023/03/09 00:15:30;;;;;;;1.97;1.40;;;15.10;72.70;;;;;;4978280;28;20422;-47
2023/03/09 00:17:55;;;;;;;1.50;1.40;;;14.90;72.80;;;;;;4979780;28;20207;-48
2023/03/09 00:20:22;;;;;;;2.80;1.50;;;14.80;73.50;;;;;;4997428;28;20785;-49
2023/03/09 00:22:49;;;;;;;1.67;1.57;;;15.00;73.40;;;;;;4997664;28;20233;-48
2023/03/09 00:25:16;;;;;;;1.53;1.30;;;15.00;72.80;;;;;;4997672;28;20786;-46
2023/03/09 00:27:42;;;;;;;2.57;1.10;;;14.90;73.40;;;;;;4997540;28;20560;-46
2023/03/09 00:30:09;;;;;;;4.40;1.50;;;14.90;74.10;;;;;;4995113;28;20429;-48
2023/03/09 00:32:35;;;;;;;2.90;1.37;;;14.60;75.30;;;;;;4978051;28;20470;-46
2023/03/09 00:35:01;;;;;;;3.40;1.00;;;14.40;75.70;;;;;;4979960;28;20462;-47
2023/03/09 00:37:26;;;;;;;3.23;1.13;;;13.70;76.80;;;;;;4996288;28;20468;-49
2023/03/09 00:39:52;;;;;;;1.90;1.27;;;13.70;78.20;;;;;;4997166;28;20201;-48
2023/03/09 00:42:18;;;;;;;3.20;1.17;;;13.50;79.00;;;;;;4995955;28;20904;-45
2023/03/09 00:44:43;;;;;;;4.23;1.10;;;13.70;80.30;;;;;;4997386;28;20623;-46
2023/03/09 00:47:09;;;;;;;2.93;1.30;;;13.60;79.00;;;;;;4988505;28;20195;-45
2023/03/09 00:49:34;;;;;;;2.03;0.90;;;13.70;80.00;;;;;;4977561;28;20318;-49
2023/03/09 00:52:00;;;;;;;1.00;0.90;;;13.70;80.20;;;;;;4979702;28;20677;-46
2023/03/09 00:54:25;;;;;;;1.27;1.03;;;14.00;80.00;;;;;;4997471;28;20234;-46
2023/03/09 00:56:51;;;;;;;1.23;1.10;;;14.10;78.80;;;;;;4997504;28;20251;-46
2023/03/09 00:59:16;;;;;;;1.83;0.97;;;14.30;78.70;;;;;;4997337;28;20198;-45
2023/03/09 01:01:42;;;;;;;2.23;1.53;;;14.30;78.40;;;;;;4996910;28;20274;-47
2023/03/09 01:04:08;;;;;;;1.67;1.00;;;14.40;78.80;;;;;;4992720;28;20608;-46
2023/03/09 01:06:34;;;;;;;1.50;1.10;;;14.40;78.80;;;;;;4988974;28;20266;-48
2023/03/09 01:08:59;;;;;;;2.27;0.90;;;14.60;78.20;;;;;;4991877;28;20750;-46
2023/03/09 01:11:25;;;;;;;3.50;1.10;;;14.80;76.60;;;;;;4992248;28;20195;-46
2023/03/09 01:13:52;;;;;;;2.63;1.00;;;14.90;75.60;;;;;;4993752;28;20198;-49
2023/03/09 01:16:18;;;;;;;2.50;0.80;;;14.80;73.80;;;;;;4993994;28;20505;-46
2023/03/09 01:18:43;;;;;;;0.97;0.97;;;14.90;74.50;;;;;;4992114;28;20539;-45
2023/03/09 01:21:09;;;;;;;2.50;0.70;;;14.50;72.70;;;;;;4991845;28;20194;-47
2023/03/09 01:23:37;;;;;;;4.03;0.87;;;14.50;74.10;;;;;;4993084;28;20222;-45
2023/03/09 01:26:04;;;;;;;1.17;0.60;;;14.00;70.80;;;;;;4976636;28;20423;-48
2023/03/09 01:28:30;;;;;;;0.70;0.60;;;14.00;72.10;;;;;;4993364;28;20527;-45
2023/03/09 01:30:56;;;;;;;1.80;0.60;;;13.90;70.70;;;;;;4993100;28;20469;-46
2023/03/09 01:33:22;;;;;;;1.33;0.70;;;13.90;70.70;;;;;;4992797;28;21000;-46
2023/03/09 01:35:47;;;;;;;1.73;0.70;;;13.90;70.20;;;;;;4990283;28;20233;-47
2023/03/09 01:38:13;;;;;;;4.50;2.60;;;13.90;69.50;;;;;;4982731;28;20233;-46
2023/03/09 01:40:39;;;;;;;0.67;0.57;;;13.90;68.60;;;;;;4982907;28;20680;-46
2023/03/09 01:43:34;;;;;;;1.27;0.60;;;13.90;68.50;;;;;;4992151;28;20334;-46
2023/03/09 01:46:23;;;;;;;1.13;0.50;;;14.00;67.00;;;;;;4991956;28;20203;-47
2023/03/09 01:49:09;;;;;;;1.50;0.70;;;13.70;66.10;;;;;;4991029;28;20484;-46
2023/03/09 01:52:04;;;;;;;1.63;0.77;;;13.60;67.30;;;;;;4982645;28;20961;-46
2023/03/09 01:54:32;;;;;;;1.53;1.00;;;13.70;66.60;;;;;;4972204;28;20474;-47
2023/03/09 01:57:22;;;;;;;1.73;0.60;;;13.40;66.80;;;;;;4987741;28;20465;-47
2023/03/09 01:59:50;;;;;;;0.77;0.60;;;13.40;67.60;;;;;;4975720;28;20484;-46
2023/03/09 02:02:16;;;;;;;1.10;0.60;;;13.40;67.70;;;;;;4989359;28;20513;-46
2023/03/09 02:04:46;;;;;;;0.80;0.60;;;13.40;68.20;;;;;;4985310;28;20469;-46
2023/03/09 02:07:15;;;;;;;0.70;0.60;;;13.30;68.00;;;;;;4980147;28;20903;-45
2023/03/09 02:09:50;;;;;;;0.90;0.90;;;13.30;68.70;;;;;;4982741;28;20498;-48
2023/03/09 02:12:18;;;;;;;0.80;0.60;;;13.60;68.10;;;;;;4984815;28;20437;-46
2023/03/09 02:14:44;;;;;;;0.60;0.50;;;13.80;67.30;;;;;;4990628;28;20954;-48
2023/03/09 02:17:12;;;;;;;1.53;0.70;;;13.80;66.70;;;;;;4991513;28;20492;-46
2023/03/09 02:19:50;;;;;;;1.33;0.60;;;13.70;66.10;;;;;;4987165;28;20285;-46
2023/03/09 02:22:16;;;;;;;0.70;0.60;;;13.70;66.00;;;;;;4983858;28;20509;-49
2023/03/09 02:24:55;;;;;;;0.57;0.50;;;13.60;66.10;;;;;;4988391;28;20437;-46
2023/03/09 02:27:27;;;;;;;1.80;0.60;;;13.50;66.50;;;;;;4986429;28;20198;-46
2023/03/09 02:29:55;;;;;;;0.77;0.50;;;13.50;66.60;;;;;;4989615;28;20488;-46
2023/03/09 02:32:20;;;;;;;1.80;0.50;;;13.30;65.70;;;;;;4979122;28;20442;-46
2023/03/09 02:34:46;;;;;;;1.03;0.60;;;13.30;66.30;;;;;;4988942;28;20492;-46
2023/03/09 02:37:22;;;;;;;0.60;0.60;;;13.30;66.20;;;;;;4990081;28;20576;-46
2023/03/09 02:39:50;;;;;;;0.90;0.60;;;13.50;65.30;;;;;;4989543;28;20524;-45
2023/03/09 02:42:17;;;;;;;1.00;0.87;;;13.60;64.90;;;;;;4969451;28;20454;-47
2023/03/09 02:44:42;;;;;;;1.20;0.70;;;13.60;64.60;;;;;;4985793;28;20446;-46
2023/03/09 02:47:13;;;;;;;0.80;0.60;;;13.60;63.50;;;;;;4984691;28;20431;-46
2023/03/09 02:49:38;;;;;;;0.60;0.60;;;13.60;63.60;;;;;;4972411;28;20250;-46
2023/03/09 02:52:04;;;;;;;1.70;0.60;;;13.50;62.70;;;;;;4989700;28;20426;-45
2023/03/09 02:54:30;;;;;;;0.53;0.53;;;13.20;63.90;;;;;;4989256;28;20255;-46
2023/03/09 02:56:56;;;;;;;0.70;0.60;;;13.10;64.30;;;;;;4982678;28;20230;-45
2023/03/09 02:59:21;;;;;;;0.83;0.50;;;13.00;64.40;;;;;;4983597;28;20266;-45
2023/03/09 03:01:47;;;;;;;1.43;0.50;;;13.00;64.50;;;;;;4987130;28;20205;-45
2023/03/09 03:04:12;;;;;;;0.77;0.70;;;12.90;65.10;;;;;;4971054;28;20234;-45
2023/03/09 03:06:39;;;;;;;1.30;0.53;;;13.20;65.20;;;;;;4976684;28;20192;-45
2023/03/09 03:09:05;;;;;;;0.70;0.70;;;13.50;65.00;;;;;;4982898;28;20222;-45
2023/03/09 03:11:31;;;;;;;1.53;0.60;;;13.20;64.40;;;;;;4987032;28;20821;-46
2023/03/09 03:13:56;;;;;;;0.90;0.50;;;13.00;65.60;;;;;;4991536;28;20426;-46
2023/03/09 03:16:22;;;;;;;0.60;0.60;;;13.00;67.70;;;;;;4989451;28;20194;-46
2023/03/09 03:18:47;;;;;;;0.97;0.80;;;13.10;67.90;;;;;;4979393;28;20899;-45
2023/03/09 03:21:13;;;;;;;0.50;0.50;;;13.10;67.90;;;;;;4982697;28;20218;-45
2023/03/09 03:23:39;;;;;;;1.63;0.57;;;13.10;68.60;;;;;;4981085;28;20717;-46
2023/03/09 03:26:08;;;;;;;0.70;0.60;;;13.10;70.10;;;;;;4980818;28;20198;-46
2023/03/09 03:28:34;;;;;;;1.37;0.63;;;13.00;70.70;;;;;;4986874;28;20214;-46
2023/03/09 03:31:00;;;;;;;1.00;0.70;;;13.20;70.90;;;;;;4971842;28;20505;-46
2023/03/09 03:33:26;;;;;;;0.60;0.50;;;13.20;71.20;;;;;;4973622;28;20530;-46
2023/03/09 03:35:51;;;;;;;0.50;0.50;;;13.10;71.70;;;;;;4986241;28;20597;-45
2023/03/09 03:38:17;;;;;;;0.50;0.50;;;13.00;71.60;;;;;;4985388;28;20472;-46
2023/03/09 03:40:43;;;;;;;1.00;0.60;;;13.20;72.70;;;;;;4988444;28;20207;-47
2023/03/09 03:43:08;;;;;;;0.50;0.50;;;12.80;72.30;;;;;;4986919;28;20222;-46
2023/03/09 03:45:34;;;;;;;1.27;0.60;;;12.60;71.90;;;;;;4984141;28;20194;-46
2023/03/09 03:47:59;;;;;;;2.00;0.40;;;12.50;72.80;;;;;;4985226;28;20227;-46
2023/03/09 03:50:25;;;;;;;0.60;0.40;;;12.50;72.20;;;;;;4988957;28;20289;-45
2023/03/09 03:52:50;;;;;;;1.63;0.60;;;12.80;71.80;;;;;;4987941;28;20206;-46
2023/03/09 03:55:16;;;;;;;1.70;0.70;;;12.90;70.40;;;;;;4979178;28;20202;-46
2023/03/09 03:57:42;;;;;;;0.97;0.60;;;12.90;69.50;;;;;;4987151;28;20609;-45
2023/03/09 04:00:10;;;;;;;0.60;0.60;;;13.00;69.20;;;;;;4987812;28;20278;-47
2023/03/09 04:02:40;;;;;;;0.90;0.60;;;13.20;68.80;;;;;;4985341;28;20206;-45
2023/03/09 04:05:07;;;;;;;1.33;0.90;;;13.30;67.70;;;;;;4989683;28;20434;-46
2023/03/09 04:07:32;;;;;;;0.73;0.73;;;13.10;67.40;;;;;;4985630;28;20570;-45
2023/03/09 04:09:58;;;;;;;1.70;1.17;;;13.00;67.70;;;;;;4980591;28;20507;-46
2023/03/09 04:12:24;;;;;;;1.17;0.60;;;13.00;68.20;;;;;;4987256;28;20211;-46
2023/03/09 04:14:49;;;;;;;3.90;1.10;;;12.80;67.60;;;;;;4984471;28;20740;-44
2023/03/09 04:17:15;;;;;;;2.80;1.10;;;12.80;67.80;;;;;;4988783;28;20206;-45
2023/03/09 04:19:40;;;;;;;1.77;0.80;;;12.80;67.90;;;;;;4982187;28;20195;-44
2023/03/09 04:22:09;;;;;;;1.00;0.80;;;12.80;67.90;;;;;;4985518;28;20209;-47
2023/03/09 04:24:34;;;;;;;3.83;1.40;;;12.80;68.00;;;;;;4983671;28;20200;-44
2023/03/09 04:27:00;;;;;;;1.63;0.80;;;13.00;68.10;;;;;;4978190;28;20861;-45
2023/03/09 04:29:26;;;;;;;1.83;0.90;;;13.00;68.00;;;;;;4980568;28;20234;-45
2023/03/09 04:31:51;;;;;;;1.53;0.73;;;13.00;67.60;;;;;;4989804;28;20252;-44
2023/03/09 04:34:17;;;;;;;2.73;0.83;;;13.00;68.30;;;;;;4988318;28;20564;-45
2023/03/09 04:36:42;;;;;;;4.53;1.60;;;13.00;67.70;;;;;;4988939;28;20195;-45
2023/03/09 04:39:09;;;;;;;3.83;1.67;;;12.90;67.80;;;;;;4987184;28;20195;-45
2023/03/09 04:41:35;;;;;;;3.07;1.43;;;13.10;68.10;;;;;;4988044;28;20273;-45
2023/03/09 04:44:01;;;;;;;7.70;1.40;;;13.00;67.10;;;;;;4991223;28;20442;-45
2023/03/09 04:46:27;;;;;;;7.67;1.47;;;12.70;67.50;;;;;;4990147;28;20452;-45
2023/03/09 04:48:52;;;;;;;2.63;1.10;;;12.60;68.70;;;;;;4981100;28;20489;-45
2023/03/09 04:51:18;;;;;;;4.80;1.27;;;12.80;68.10;;;;;;4990213;28;20199;-45
2023/03/09 04:53:44;;;;;;;4.00;1.30;;;12.70;68.00;;;;;;4985941;28;20229;-45
2023/03/09 04:56:09;;;;;;;6.53;1.60;;;12.70;67.90;;;;;;4990333;28;20187;-45
2023/03/09 04:58:35;;;;;;;6.93;1.70;;;12.90;66.80;;;;;;4989455;28;20241;-46
2023/03/09 05:01:01;;;;;;;8.40;1.97;;;12.70;66.70;;;;;;4991665;28;20195;-45
2023/03/09 05:03:27;;;;;;;5.50;1.80;;;13.00;66.50;;;;;;4984635;28;20246;-45
2023/03/09 05:05:53;;;;;;;4.53;1.70;;;13.10;65.00;;;;;;4986479;28;20442;-45
2023/03/09 05:08:19;;;;;;;3.03;1.63;;;12.70;64.50;;;;;;4990016;28;20885;-44
2023/03/09 05:10:45;;;;;;;4.87;1.50;;;12.60;66.00;;;;;;4990162;28;20198;-45
2023/03/09 05:13:11;;;;;;;6.27;1.57;;;12.80;65.80;;;;;;4992491;28;20457;-45
2023/03/09 05:15:40;;;;;;;3.23;1.90;;;12.90;64.60;;;;;;4988175;28;20249;-44
2023/03/09 05:18:07;;;;;;;4.00;1.47;;;13.00;64.20;;;;;;4990748;28;20281;-44
2023/03/09 05:20:33;;;;;;;4.33;1.83;;;13.00;64.00;;;;;;4987462;28;20820;-44
2023/03/09 05:22:59;;;;;;;4.80;1.40;;;12.80;63.40;;;;;;4981613;28;20434;-45
2023/03/09 05:25:25;;;;;;;3.77;1.70;;;12.90;63.80;;;;;;4990682;28;20199;-45
2023/03/09 05:27:51;;;;;;;5.90;1.43;;;12.80;63.60;;;;;;4990021;28;20488;-45
2023/03/09 05:30:18;;;;;;;3.70;1.40;;;12.70;63.50;;;;;;4983411;28;20206;-44
2023/03/09 05:32:43;;;;;;;4.50;1.50;;;12.70;64.10;;;;;;4993531;28;20260;-45
2023/03/09 05:35:09;;;;;;;8.10;2.03;;;12.80;63.90;;;;;;4982176;28;20430;-45
2023/03/09 05:37:35;;;;;;;3.43;1.30;;;12.70;63.30;;;;;;4977086;28;20713;-44
2023/03/09 05:40:01;;;;;;;8.23;2.07;;;12.80;62.80;;;;;;4973522;28;20223;-45
2023/03/09 05:42:26;;;;;;;4.00;1.73;;;12.70;63.20;;;;;;4987404;28;20461;-45
2023/03/09 05:44:52;;;;;;;3.50;1.77;;;12.90;63.60;;;;;;4990676;28;20195;-45
2023/03/09 05:47:18;;;;;;;5.77;1.90;;;13.10;63.50;;;;;;4973126;28;20217;-45
2023/03/09 05:49:43;;;;;;;7.03;1.60;;;13.10;62.80;;;;;;4982093;28;20316;-45
2023/03/09 05:52:09;;;;;;;5.20;2.00;;;13.30;62.60;;;;;;4979482;28;20204;-45
2023/03/09 05:54:35;;;;;;;4.10;1.77;;;13.30;62.10;;;;;;4990504;28;20682;-45
2023/03/09 05:57:01;;;;;;;5.03;2.00;;;13.30;62.40;;;;;;4989663;28;20201;-46
2023/03/09 05:59:26;;;;;;;3.63;1.50;;;13.20;62.30;;;;;;4990619;28;20681;-44
2023/03/09 06:01:52;;;;;;;9.37;2.10;;;13.20;62.70;;;;;;4990936;28;20787;-45
2023/03/09 06:04:18;;;;;;;3.70;2.10;;;13.30;62.50;;;;;;4990093;28;20281;-45
2023/03/09 06:06:43;;;;;;;4.03;1.63;;;13.50;61.90;;;;;;4987664;28;20199;-45
2023/03/09 06:09:09;;;;;;;5.00;1.83;;;13.50;61.80;;;;;;4981272;28;20258;-45
2023/03/09 06:11:35;;;;;;;6.10;1.70;;;13.70;61.40;;;;;;4985685;28;20211;-45
2023/03/09 06:14:00;;;;;;;10.70;2.13;;;13.90;60.80;;;;;;4992625;28;20222;-45
2023/03/09 06:16:26;;;;;;;2.00;1.33;;;13.70;60.60;;;;;;4991176;28;20187;-46
2023/03/09 06:18:55;;;;;;;3.63;1.27;;;14.00;60.40;;;;;;4977023;28;20203;-44
2023/03/09 06:21:20;;;;;;;6.33;2.13;;;14.20;59.80;;;;;;4987941;28;20484;-44
2023/03/09 06:23:46;;;;;;;5.80;1.80;;;14.20;59.20;;;;;;4990466;28;20867;-44
2023/03/09 06:26:12;;;;;;;8.10;2.00;;;14.00;59.70;;;;;;4988340;28;20285;-45
2023/03/09 06:28:38;;;;;;;5.97;2.10;;;14.20;59.70;;;;;;4991441;28;20235;-45
2023/03/09 06:31:11;;;;;;;5.40;3.20;;;14.10;59.50;;;;;;4990056;28;20849;-44
2023/03/09 06:33:37;;;;;;;5.00;1.80;;;14.20;59.50;;;;;;4985325;28;20676;-47
2023/03/09 06:36:03;;;;;;;5.83;2.17;;;14.30;59.00;;;;;;4989546;28;20476;-45
2023/03/09 06:38:29;;;;;;;6.80;2.30;;;14.60;58.70;;;;;;4987703;28;20931;-47
2023/03/09 06:40:55;;;;;;;6.77;1.80;;;14.70;58.50;;;;;;4988624;28;20450;-46
2023/03/09 06:43:21;;;;;;;4.17;1.50;;;14.60;58.20;;;;;;4987843;28;20209;-46
2023/03/09 06:45:47;;;;;;;5.30;3.37;;;14.60;58.10;;;;;;4991978;28;20800;-49
2023/03/09 06:48:13;;;;;;;3.27;1.57;;;14.70;58.00;;;;;;4975157;28;20513;-49
2023/03/09 06:50:39;;;;;;;5.23;2.23;;;14.70;57.90;;;;;;4986090;28;20442;-47
2023/03/09 06:53:04;;;;;;;3.70;2.30;;;14.70;57.90;;;;;;4990527;28;20497;-48
2023/03/09 06:55:30;;;;;;;8.80;2.20;;;14.90;57.80;;;;;;4991123;28;20244;-45
2023/03/09 06:57:56;;;;;;;6.27;1.27;;;14.70;56.80;;;;;;4987350;28;20241;-45
2023/03/09 07:00:22;;;;;;;7.03;1.90;;;14.50;57.50;;;;;;4989129;28;20190;-47
2023/03/09 07:02:47;;;;;;;6.23;1.70;;;14.60;57.90;;;;;;4990160;28;20322;-48
2023/03/09 07:05:13;;;;;;;4.10;2.07;;;14.50;57.30;;;;;;4989872;28;20198;-48
2023/03/09 07:07:41;;;;;;;6.13;1.70;;;14.50;57.80;;;;;;4979165;28;20663;-45
2023/03/09 07:10:07;;;;;;;5.10;1.67;;;14.20;57.80;;;;;;4991284;28;20183;-48
2023/03/09 07:12:33;;;;;;;6.80;1.90;;;14.00;58.00;;;;;;4973011;28;20542;-45
2023/03/09 07:14:58;;;;;;;6.00;1.63;;;14.00;58.50;;;;;;4972826;28;20472;-47
2023/03/09 07:17:24;;;;;;;2.93;1.40;;;14.20;58.60;;;;;;4976504;28;20281;-45
2023/03/09 07:19:51;;;;;;;4.93;1.77;;;14.10;58.30;;;;;;4971842;28;20413;-48
2023/03/09 07:22:17;;;;;;;3.27;1.80;;;14.00;58.60;;;;;;4972987;28;20199;-44
2023/03/09 07:24:43;;;;;;;4.67;1.83;;;14.00;59.00;;;;;;4979788;28;20445;-48
2023/03/09 07:27:09;;;;;;;5.80;2.07;;;14.00;58.50;;;;;;4960411;28;20472;-46
2023/03/09 07:29:35;;;;;;;2.60;1.77;;;13.90;57.40;;;;;;4991018;28;20265;-45
2023/03/09 07:32:02;;;;;;;5.63;1.70;;;13.90;57.80;;;;;;4991532;28;20273;-44
2023/03/09 07:34:28;;;;;;;5.20;1.57;;;14.10;57.60;;;;;;4990841;28;20442;-45
2023/03/09 07:36:53;;;;;;;2.00;1.27;;;14.20;57.80;;;;;;4978704;28;20427;-45
2023/03/09 07:39:19;;;;;;;3.70;1.30;;;14.20;57.80;;;;;;4978722;28;20427;-47
2023/03/09 07:41:45;;;;;;;6.83;1.90;;;14.30;58.60;;;;;;4983811;28;20217;-46
2023/03/09 07:44:10;;;;;;;3.20;1.83;;;14.40;57.50;;;;;;4991445;28;20221;-45
2023/03/09 07:46:36;;;;;;;3.40;1.63;;;14.40;57.30;;;;;;4978659;28;20648;-47
2023/03/09 07:49:02;;;;;;;3.33;1.30;;;14.60;57.50;;;;;;4988048;28;20357;-44
2023/03/09 07:51:29;;;;;;;4.20;1.67;;;14.50;56.70;;;;;;4982270;28;20214;-46
2023/03/09 07:53:55;;;;;;;5.53;2.00;;;14.50;56.60;;;;;;4985649;28;20441;-44
2023/03/09 07:56:21;;;;;;;5.63;2.30;;;14.40;56.60;;;;;;4984848;28;20442;-44
2023/03/09 07:58:46;;;;;;;2.03;1.30;;;14.20;56.40;;;;;;4984477;28;20726;-45
2023/03/09 08:01:17;;;;;;;7.47;1.40;;;14.40;56.80;;;;;;4984470;28;20647;-45
2023/03/09 08:03:43;;;;;;;5.70;1.70;;;14.30;56.50;;;;;;4987388;28;20293;-45
2023/03/09 08:06:09;;;;;;;2.27;1.43;;;14.20;57.00;;;;;;4986309;28;20880;-45
2023/03/09 08:08:36;;;;;;;4.90;1.90;;;14.30;57.00;;;;;;4984486;28;20504;-48
2023/03/09 08:11:03;;;;;;;5.17;2.00;;;14.10;56.70;;;;;;4985511;28;20469;-45
2023/03/09 08:13:29;;;;;;;2.67;1.30;;;14.10;57.00;;;;;;4986483;28;20536;-46
2023/03/09 08:15:55;;;;;;;6.23;2.33;;;14.10;57.10;;;;;;4990697;28;20446;-48
2023/03/09 08:18:20;;;;;;;4.13;1.73;;;14.20;57.20;;;;;;4992578;28;20458;-45
2023/03/09 08:20:46;;;;;;;5.00;1.53;;;14.20;57.50;;;;;;4984189;28;20195;-45
2023/03/09 08:23:12;;;;;;;5.20;1.93;;;14.30;57.10;;;;;;4989057;28;20282;-48
2023/03/09 08:25:38;;;;;;;3.73;1.60;;;14.00;56.90;;;;;;4987459;28;20190;-47
2023/03/09 08:28:04;;;;;;;3.70;1.40;;;14.10;57.60;;;;;;4983922;28;20219;-44
2023/03/09 08:30:31;;;;;;;2.30;1.60;;;14.00;57.30;;;;;;4987971;28;20194;-44
2023/03/09 08:32:57;;;;;;;3.60;1.50;;;14.10;57.30;;;;;;4989333;28;20568;-44
2023/03/09 08:35:27;;;;;;;2.87;1.30;;;14.20;57.30;;;;;;4982274;28;20856;-44
2023/03/09 08:37:52;;;;;;;5.17;1.70;;;14.20;57.10;;;;;;4982959;28;20456;-45
2023/03/09 08:40:18;;;;;;;5.43;1.70;;;14.20;56.90;;;;;;4975503;28;20441;-44
2023/03/09 08:42:44;;;;;;;4.63;3.20;;;14.50;57.00;;;;;;4983916;28;20203;-44
2023/03/09 08:45:10;;;;;;;3.23;1.30;;;14.40;56.50;;;;;;4980022;28;20210;-44
2023/03/09 08:47:36;;;;;;;7.20;1.50;;;14.30;56.40;;;;;;4978387;28;20191;-45
2023/03/09 08:50:03;;;;;;;1.27;1.10;;;14.40;56.70;;;;;;4980171;28;20442;-44
2023/03/09 08:52:34;;;;;;;3.97;1.20;;;14.30;56.70;;;;;;4986220;28;20541;-43
2023/03/09 08:55:00;;;;;;;3.30;1.00;;;14.40;57.10;;;;;;4986025;28;20454;-44
2023/03/09 08:57:27;;;;;;;2.83;1.20;;;14.10;56.30;;;;;;4986697;28;20458;-43
2023/03/09 08:59:52;;;;;;;2.13;1.03;;;14.20;56.90;;;;;;4982485;28;20937;-43
2023/03/09 09:02:18;;;;;;;1.40;1.17;;;14.40;57.10;;;;;;4990411;28;20449;-43
2023/03/09 09:04:44;;;;;;;4.80;1.20;;;14.80;56.80;;;;;;4988234;28;20231;-44
2023/03/09 09:07:14;;;;;;;6.10;1.17;;;14.60;56.20;;;;;;4985153;28;20198;-45
2023/03/09 09:09:41;;;;;;;6.13;1.47;;;14.60;56.30;;;;;;4984407;28;20635;-43
2023/03/09 09:12:08;;;;;;;7.73;1.20;;;14.60;56.60;;;;;;4980020;28;20438;-44
2023/03/09 09:14:34;;;;;;;9.03;1.93;;;14.60;56.80;;;;;;4981947;28;20458;-44
2023/03/09 09:17:00;;;;;;;2.53;1.27;;;14.70;57.40;;;;;;4988533;28;20473;-44
2023/03/09 09:19:26;;;;;;;2.20;1.17;;;14.40;57.10;;;;;;4975451;28;21514;-44
2023/03/09 09:21:54;;;;;;;4.57;1.23;;;14.50;57.90;;;;;;4984819;28;20460;-44
2023/03/09 09:24:20;;;;;;;4.83;1.33;;;14.70;58.30;;;;;;4980576;28;20457;-43
2023/03/09 09:26:46;;;;;;;1.30;0.90;;;14.50;57.90;;;;;;4981533;28;20492;-43
2023/03/09 09:29:13;;;;;;;2.47;0.90;;;14.40;58.80;;;;;;4981387;28;20261;-45
2023/03/09 09:31:39;;;;;;;2.53;0.93;;;14.60;59.80;;;;;;4984482;28;20226;-44
2023/03/09 09:34:05;;;;;;;4.50;1.07;;;14.80;59.40;;;;;;4984490;28;20491;-43
2023/03/09 09:36:33;;;;;;;1.97;1.03;;;14.80;59.70;;;;;;4981166;28;20445;-43
2023/03/09 09:38:59;;;;;;;2.40;1.23;;;14.60;59.20;;;;;;4990184;28;20477;-45
2023/03/09 09:41:50;;;;;;;3.40;1.00;;;14.50;59.70;;;;;;4983281;28;20491;-44
2023/03/09 09:44:29;;;;;;;4.07;1.23;;;14.30;59.70;;;;;;4982214;28;20203;-43
2023/03/09 09:46:58;;;;;;;1.20;0.87;;;14.50;60.40;;;;;;4983666;28;20519;-45
2023/03/09 09:49:26;;;;;;;1.60;0.90;;;14.40;60.00;;;;;;4985577;28;20853;-45
2023/03/09 09:52:04;;;;;;;2.43;0.90;;;14.60;59.90;;;;;;4987412;28;20816;-45
2023/03/09 09:54:47;;;;;;;4.03;1.53;;;14.80;59.40;;;;;;4982490;28;20536;-43
2023/03/09 09:57:33;;;;;;;2.30;0.90;;;14.90;59.40;;;;;;4987383;28;20446;-43
2023/03/09 10:00:02;;;;;;;4.30;1.50;;;14.70;59.00;;;;;;4982928;28;20900;-45
2023/03/09 10:02:51;;;;;;;0.80;0.80;;;14.70;59.30;;;;;;4987314;28;20442;-44
2023/03/09 10:05:27;;;;;;;3.43;1.03;;;14.70;58.70;;;;;;4982280;28;20948;-44
2023/03/09 10:07:55;;;;;;;4.63;1.23;;;14.60;58.70;;;;;;4976562;28;20442;-45
2023/03/09 10:10:25;;;;;;;1.90;0.90;;;14.40;58.70;;;;;;4972627;28;20975;-45
2023/03/09 10:12:50;;;;;;;1.70;0.80;;;14.70;59.20;;;;;;4967522;28;20458;-44
2023/03/09 10:15:33;;;;;;;3.00;1.20;;;14.70;58.80;;;;;;4979975;28;20445;-44
2023/03/09 10:18:06;;;;;;;2.00;0.90;;;14.80;58.80;;;;;;4981399;28;20691;-45
2023/03/09 10:20:59;;;;;;;3.10;1.13;;;15.00;58.70;;;;;;4982668;28;20530;-48
2023/03/09 10:23:29;;;;;;;2.13;1.03;;;15.00;58.20;;;;;;4984843;28;20541;-43
2023/03/09 10:26:30;;;;;;;2.73;1.00;;;14.90;58.20;;;;;;4986224;28;20449;-43
2023/03/09 10:29:01;;;;;;;1.73;1.03;;;14.80;57.90;;;;;;4977501;28;20870;-43
2023/03/09 10:31:26;;;;;;;2.43;0.97;;;14.90;59.00;;;;;;4987567;28;20540;-43
2023/03/09 10:34:23;;;;;;;2.53;1.20;;;14.80;58.60;;;;;;4986929;28;20877;-43
2023/03/09 10:37:07;;;;;;;1.87;0.90;;;14.80;58.50;;;;;;4975134;28;20434;-44
2023/03/09 10:39:42;;;;;;;3.43;1.20;;;14.90;58.00;;;;;;4976615;28;22404;-44
2023/03/09 10:42:21;;;;;;;1.07;0.77;;;14.80;58.60;;;;;;4980810;28;20460;-43
2023/03/09 10:45:16;;;;;;;1.00;0.90;;;14.70;58.10;;;;;;4982434;28;20449;-44
2023/03/09 10:47:56;;;;;;;4.43;0.87;;;14.60;58.60;;;;;;4979962;28;20449;-44
2023/03/09 10:50:25;;;;;;;2.30;0.93;;;14.90;59.00;;;;;;4980635;28;21038;-43
2023/03/09 10:52:52;;;;;;;1.30;1.07;;;15.00;58.00;;;;;;4979238;28;20441;-45
2023/03/09 10:55:34;;;;;;;4.67;1.30;;;15.30;57.40;;;;;;4976558;28;21076;-44
2023/03/09 10:58:06;;;;;;;3.17;1.20;;;15.40;56.40;;;;;;4985567;28;20850;-44
2023/03/09 11:00:31;;;;;;;5.00;1.40;;;15.50;55.70;;;;;;4988475;28;20806;-44
2023/03/09 11:02:59;;;;;;;2.40;1.10;;;15.40;55.50;;;;;;4984237;28;20533;-43
2023/03/09 11:05:31;;;;;;;2.80;1.20;;;15.40;55.80;;;;;;4985898;28;20198;-44
2023/03/09 11:07:59;;;;;;;4.30;1.57;;;15.70;55.30;;;;;;4981901;28;20544;-43
2023/03/09 11:10:29;;;;;;;4.40;1.67;;;15.70;54.40;;;;;;4982611;28;20442;-44
2023/03/09 11:12:56;;;;;;;3.03;1.70;;;16.00;54.00;;;;;;4984633;28;20515;-44
2023/03/09 11:15:28;;;;;;;4.80;2.00;;;16.20;53.80;;;;;;4987515;28;20445;-43
2023/03/09 11:17:55;;;;;;;3.80;2.10;;;16.50;52.50;;;;;;4986528;28;21017;-43
2023/03/09 11:20:28;;;;;;;6.90;3.00;;;16.50;51.70;;;;;;4985816;28;20862;-44
2023/03/09 11:23:12;;;;;;;3.13;1.40;;;16.50;51.50;;;;;;4981904;28;20453;-45
2023/03/09 11:25:43;;;;;;;4.70;1.40;;;16.50;52.00;;;;;;4982896;28;20961;-44
2023/03/09 11:28:20;;;;;;;5.33;1.27;;;16.60;51.40;;;;;;4981325;28;20600;-44
2023/03/09 11:30:51;;;;;;;2.73;1.30;;;16.70;52.00;;;;;;4988991;28;20446;-44
2023/03/09 11:33:18;;;;;;;9.37;1.50;;;16.90;51.80;;;;;;4984351;28;20449;-44
2023/03/09 11:35:48;;;;;;;2.07;1.30;;;17.00;51.00;;;;;;4984253;28;20999;-44
2023/03/09 11:38:15;;;;;;;1.77;1.00;;;17.30;50.90;;;;;;4986507;28;20446;-45
2023/03/09 11:40:41;;;;;;;2.53;1.50;;;17.10;49.50;;;;;;4986623;28;20504;-46
2023/03/09 11:43:28;;;;;;;4.43;1.73;;;17.10;50.60;;;;;;4988346;28;20446;-44
2023/03/09 11:45:59;;;;;;;2.67;1.33;;;17.30;50.00;;;;;;4984446;28;20473;-44
2023/03/09 11:48:47;;;;;;;9.57;1.57;;;17.60;50.00;;;;;;4988392;28;20481;-44
2023/03/09 11:51:19;;;;;;;2.03;1.30;;;17.60;49.40;;;;;;4983798;28;20449;-45
2023/03/09 11:54:04;;;;;;;3.30;1.00;;;17.60;48.90;;;;;;4980494;28;20461;-45
2023/03/09 11:56:37;;;;;;;5.20;1.50;;;17.60;48.70;;;;;;4988771;28;20438;-44
2023/03/09 11:59:11;;;;;;;4.30;1.20;;;17.60;48.40;;;;;;4988408;28;20445;-47
2023/03/09 12:01:49;;;;;;;1.57;1.00;;;17.60;48.60;;;;;;4983317;28;20444;-45
2023/03/09 12:04:16;;;;;;;5.13;1.33;;;17.60;48.30;;;;;;4978827;28;20485;-46
2023/03/09 12:06:47;;;;;;;3.67;1.10;;;17.50;47.90;;;;;;4985634;28;20437;-45
2023/03/09 12:09:36;;;;;;;6.47;1.10;;;17.70;48.40;;;;;;4979565;28;20510;-46
2023/03/09 12:12:22;;;;;;;2.30;0.83;;;17.90;48.10;;;;;;4984496;28;20527;-45
2023/03/09 12:14:59;;;;;;;2.47;1.43;;;18.10;48.30;;;;;;4983073;28;20941;-44
2023/03/09 12:17:31;;;;;;;2.03;1.10;;;18.10;47.60;;;;;;4987778;28;20996;-45
2023/03/09 12:19:58;;;;;;;3.90;1.40;;;17.90;47.30;;;;;;4983410;28;20453;-47
2023/03/09 12:22:37;;;;;;;2.27;1.00;;;17.50;47.70;;;;;;4983291;28;20449;-45
2023/03/09 12:25:06;;;;;;;5.70;1.00;;;17.30;47.90;;;;;;4987434;28;20501;-45
2023/03/09 12:27:35;;;;;;;2.00;1.10;;;17.20;47.80;;;;;;4979168;28;20442;-45
2023/03/09 12:30:00;;;;;;;4.43;1.33;;;17.00;48.10;;;;;;4984616;28;20503;-45
2023/03/09 12:32:26;;;;;;;1.67;0.93;;;16.90;48.40;;;;;;4979927;28;20450;-46
2023/03/09 12:34:57;;;;;;;1.57;1.00;;;17.00;48.90;;;;;;4985824;28;20216;-44
2023/03/09 12:37:28;;;;;;;1.60;1.10;;;17.40;48.50;;;;;;4983892;28;20205;-47
2023/03/09 12:40:25;;;;;;;2.40;1.33;;;17.50;48.30;;;;;;4982306;28;20449;-47
2023/03/09 12:42:55;;;;;;;4.80;1.07;;;17.50;48.00;;;;;;4973240;28;20536;-46
2023/03/09 12:45:20;;;;;;;1.73;1.07;;;17.60;47.80;;;;;;4984225;28;20458;-48
2023/03/09 12:47:55;;;;;;;2.13;1.13;;;17.80;47.30;;;;;;4981611;28;20468;-44
2023/03/09 12:50:45;;;;;;;3.77;1.30;;;17.90;46.70;;;;;;4979118;28;20673;-45
2023/03/09 12:53:12;;;;;;;2.60;1.60;;;18.00;46.40;;;;;;4981145;28;20969;-45
2023/03/09 12:55:37;;;;;;;3.00;0.90;;;17.80;46.50;;;;;;4984264;28;20457;-44